sensor_id;sensor_type;location;lat;lon;timestamp;pressure;altitude;pressure_sealevel;temperature;humidity
78317;BME280;67572;50.930;18.276;2024-03-02T00:02:10;98386.84;;;9.99;94.64
78317;BME280;67572;50.930;18.276;2024-03-02T00:05:17;98382.50;;;9.98;94.07
78317;BME280;67572;50.930;18.276;2024-03-02T00:08:23;98379.00;;;9.86;94.09
78317;BME280;67572;50.930;18.276;2024-03-02T00:11:30;98386.38;;;9.83;94.79
78317;BME280;67572;50.930;18.276;2024-03-02T00:14:33;98382.16;;;9.91;94.53
78317;BME280;67572;50.930;18.276;2024-03-02T00:17:37;98398.91;;;9.92;94.35
78317;BME280;67572;50.930;18.276;2024-03-02T00:20:42;98382.38;;;9.99;94.07
78317;BME280;67572;50.930;18.276;2024-03-02T00:23:46;98396.69;;;9.74;94.20
78317;BME280;67572;50.930;18.276;2024-03-02T00:26:51;98398.78;;;9.93;94.29
78317;BME280;67572;50.930;18.276;2024-03-02T00:29:54;98403.22;;;9.82;94.13
78317;BME280;67572;50.930;18.276;2024-03-02T00:32:59;98402.13;;;9.73;94.23
78317;BME280;67572;50.930;18.276;2024-03-02T00:36:04;98401.41;;;9.71;94.32
78317;BME280;67572;50.930;18.276;2024-03-02T00:39:08;98396.72;;;9.86;94.38
78317;BME280;67572;50.930;18.276;2024-03-02T00:42:15;98396.84;;;9.95;93.97
78317;BME280;67572;50.930;18.276;2024-03-02T00:45:19;98398.16;;;9.90;93.61
78317;BME280;67572;50.930;18.276;2024-03-02T00:48:23;98400.72;;;9.91;93.51
78317;BME280;67572;50.930;18.276;2024-03-02T00:51:30;98402.53;;;10.02;93.17
78317;BME280;67572;50.930;18.276;2024-03-02T00:54:33;98395.03;;;9.85;92.83
78317;BME280;67572;50.930;18.276;2024-03-02T00:57:38;98395.78;;;9.98;92.35
78317;BME280;67572;50.930;18.276;2024-03-02T01:00:41;98396.72;;;9.86;92.62
78317;BME280;67572;50.930;18.276;2024-03-02T01:03:44;98386.97;;;9.86;92.40
78317;BME280;67572;50.930;18.276;2024-03-02T01:06:50;98386.97;;;9.97;92.92
78317;BME280;67572;50.930;18.276;2024-03-02T01:09:53;98389.00;;;9.94;92.68
78317;BME280;67572;50.930;18.276;2024-03-02T01:12:56;98390.31;;;9.77;93.14
78317;BME280;67572;50.930;18.276;2024-03-02T01:16:00;98384.78;;;9.80;92.52
78317;BME280;67572;50.930;18.276;2024-03-02T01:19:04;98383.69;;;9.36;93.87
78317;BME280;67572;50.930;18.276;2024-03-02T01:22:09;98385.09;;;9.53;94.38
78317;BME280;67572;50.930;18.276;2024-03-02T01:25:13;98378.19;;;9.51;94.43
78317;BME280;67572;50.930;18.276;2024-03-02T01:28:16;98377.59;;;9.58;93.70
78317;BME280;67572;50.930;18.276;2024-03-02T01:31:20;98371.84;;;9.53;93.69
78317;BME280;67572;50.930;18.276;2024-03-02T01:34:24;98373.97;;;9.48;93.82
78317;BME280;67572;50.930;18.276;2024-03-02T01:37:29;98371.06;;;9.40;93.97
78317;BME280;67572;50.930;18.276;2024-03-02T01:40:33;98369.13;;;9.42;93.91
78317;BME280;67572;50.930;18.276;2024-03-02T01:43:36;98378.56;;;9.57;93.72
78317;BME280;67572;50.930;18.276;2024-03-02T01:46:42;98370.53;;;9.70;92.23
78317;BME280;67572;50.930;18.276;2024-03-02T01:49:46;98376.03;;;9.56;92.70
78317;BME280;67572;50.930;18.276;2024-03-02T01:52:51;98380.44;;;9.33;94.13
78317;BME280;67572;50.930;18.276;2024-03-02T01:55:54;98375.59;;;9.62;93.29
78317;BME280;67572;50.930;18.276;2024-03-02T01:58:58;98377.22;;;9.52;92.64
78317;BME280;67572;50.930;18.276;2024-03-02T02:02:01;98367.50;;;9.63;92.94
78317;BME280;67572;50.930;18.276;2024-03-02T02:05:05;98363.97;;;9.52;93.29
78317;BME280;67572;50.930;18.276;2024-03-02T02:08:10;98370.22;;;9.39;93.92
78317;BME280;67572;50.930;18.276;2024-03-02T02:11:14;98366.66;;;9.63;93.61
78317;BME280;67572;50.930;18.276;2024-03-02T02:14:18;98368.53;;;9.50;93.81
78317;BME280;67572;50.930;18.276;2024-03-02T02:17:22;98358.31;;;9.45;93.50
78317;BME280;67572;50.930;18.276;2024-03-02T02:20:25;98370.94;;;9.41;93.60
78317;BME280;67572;50.930;18.276;2024-03-02T02:23:30;98360.44;;;9.40;93.97
78317;BME280;67572;50.930;18.276;2024-03-02T02:26:33;98360.06;;;9.33;94.18
78317;BME280;67572;50.930;18.276;2024-03-02T02:29:37;98357.94;;;9.50;94.00
78317;BME280;67572;50.930;18.276;2024-03-02T02:32:40;98360.13;;;9.56;93.62
78317;BME280;67572;50.930;18.276;2024-03-02T02:35:43;98359.81;;;9.36;94.11
78317;BME280;67572;50.930;18.276;2024-03-02T02:38:49;98363.09;;;9.40;93.50
78317;BME280;67572;50.930;18.276;2024-03-02T02:41:52;98360.47;;;9.51;93.02
78317;BME280;67572;50.930;18.276;2024-03-02T02:44:55;98358.88;;;9.37;93.19
78317;BME280;67572;50.930;18.276;2024-03-02T02:47:59;98356.44;;;9.23;93.77
78317;BME280;67572;50.930;18.276;2024-03-02T02:51:05;98358.78;;;9.50;93.50
78317;BME280;67572;50.930;18.276;2024-03-02T02:54:09;98363.50;;;9.58;93.11
78317;BME280;67572;50.930;18.276;2024-03-02T02:57:13;98359.78;;;9.71;92.31
78317;BME280;67572;50.930;18.276;2024-03-02T03:00:17;98355.31;;;9.72;91.57
78317;BME280;67572;50.930;18.276;2024-03-02T03:03:22;98358.81;;;9.61;92.07
78317;BME280;67572;50.930;18.276;2024-03-02T03:06:25;98360.75;;;9.82;91.20
78317;BME280;67572;50.930;18.276;2024-03-02T03:09:30;98359.31;;;9.78;90.64
78317;BME280;67572;50.930;18.276;2024-03-02T03:12:34;98352.53;;;9.73;91.39
78317;BME280;67572;50.930;18.276;2024-03-02T03:15:38;98357.41;;;9.91;90.57
78317;BME280;67572;50.930;18.276;2024-03-02T03:18:42;98355.94;;;9.87;90.02
78317;BME280;67572;50.930;18.276;2024-03-02T03:21:45;98357.28;;;9.92;90.32
78317;BME280;67572;50.930;18.276;2024-03-02T03:24:50;98347.63;;;9.91;90.08
78317;BME280;67572;50.930;18.276;2024-03-02T03:27:54;98347.13;;;10.09;88.94
78317;BME280;67572;50.930;18.276;2024-03-02T03:30:57;98337.47;;;9.96;89.17
78317;BME280;67572;50.930;18.276;2024-03-02T03:34:00;98338.31;;;9.97;89.20
78317;BME280;67572;50.930;18.276;2024-03-02T03:37:04;98335.66;;;9.97;89.02
78317;BME280;67572;50.930;18.276;2024-03-02T03:40:09;98339.41;;;9.94;89.33
78317;BME280;67572;50.930;18.276;2024-03-02T03:43:13;98330.72;;;10.15;88.94
78317;BME280;67572;50.930;18.276;2024-03-02T03:46:16;98326.72;;;10.09;88.31
78317;BME280;67572;50.930;18.276;2024-03-02T03:49:20;98328.78;;;10.17;87.73
78317;BME280;67572;50.930;18.276;2024-03-02T03:52:23;98330.69;;;10.04;88.14
78317;BME280;67572;50.930;18.276;2024-03-02T03:55:28;98333.34;;;10.04;88.54
78317;BME280;67572;50.930;18.276;2024-03-02T03:58:31;98326.13;;;9.94;87.98
78317;BME280;67572;50.930;18.276;2024-03-02T04:01:35;98327.44;;;9.89;88.53
78317;BME280;67572;50.930;18.276;2024-03-02T04:04:38;98331.31;;;9.73;89.05
78317;BME280;67572;50.930;18.276;2024-03-02T04:07:41;98331.56;;;9.70;89.82
78317;BME280;67572;50.930;18.276;2024-03-02T04:10:47;98335.91;;;9.60;90.71
78317;BME280;67572;50.930;18.276;2024-03-02T04:13:50;98338.19;;;9.65;90.77
78317;BME280;67572;50.930;18.276;2024-03-02T04:16:57;98347.56;;;9.58;90.31
78317;BME280;67572;50.930;18.276;2024-03-02T04:20:00;98349.13;;;9.49;90.47
78317;BME280;67572;50.930;18.276;2024-03-02T04:23:03;98343.84;;;9.60;90.43
78317;BME280;67572;50.930;18.276;2024-03-02T04:26:08;98350.00;;;9.61;89.88
78317;BME280;67572;50.930;18.276;2024-03-02T04:29:11;98343.59;;;9.52;90.36
78317;BME280;67572;50.930;18.276;2024-03-02T04:32:15;98343.81;;;9.49;91.05
78317;BME280;67572;50.930;18.276;2024-03-02T04:35:18;98350.00;;;9.72;89.71
78317;BME280;67572;50.930;18.276;2024-03-02T04:38:22;98344.28;;;9.43;88.88
78317;BME280;67572;50.930;18.276;2024-03-02T04:41:26;98350.63;;;9.76;88.63
78317;BME280;67572;50.930;18.276;2024-03-02T04:44:30;98351.56;;;9.63;87.73
78317;BME280;67572;50.930;18.276;2024-03-02T04:47:33;98355.44;;;9.82;87.10
78317;BME280;67572;50.930;18.276;2024-03-02T04:50:36;98363.81;;;9.42;87.77
78317;BME280;67572;50.930;18.276;2024-03-02T04:53:40;98359.88;;;9.59;88.32
78317;BME280;67572;50.930;18.276;2024-03-02T04:56:44;98354.81;;;9.56;87.83
78317;BME280;67572;50.930;18.276;2024-03-02T04:59:52;98361.31;;;9.52;87.48
78317;BME280;67572;50.930;18.276;2024-03-02T05:02:55;98354.09;;;9.54;86.96
78317;BME280;67572;50.930;18.276;2024-03-02T05:05:59;98353.63;;;9.71;87.99
78317;BME280;67572;50.930;18.276;2024-03-02T05:09:02;98354.47;;;9.71;87.17
78317;BME280;67572;50.930;18.276;2024-03-02T05:12:07;98362.19;;;9.52;88.00
78317;BME280;67572;50.930;18.276;2024-03-02T05:15:37;98363.28;;;9.61;87.27
78317;BME280;67572;50.930;18.276;2024-03-02T05:18:41;98361.84;;;9.68;87.11
78317;BME280;67572;50.930;18.276;2024-03-02T05:21:44;98358.00;;;9.83;86.13
78317;BME280;67572;50.930;18.276;2024-03-02T05:24:48;98372.47;;;9.68;86.90
78317;BME280;67572;50.930;18.276;2024-03-02T05:27:55;98361.69;;;9.58;86.27
78317;BME280;67572;50.930;18.276;2024-03-02T05:30:59;98373.06;;;9.60;86.22
78317;BME280;67572;50.930;18.276;2024-03-02T05:34:02;98380.66;;;9.65;85.96
78317;BME280;67572;50.930;18.276;2024-03-02T05:37:07;98379.22;;;9.72;85.58
78317;BME280;67572;50.930;18.276;2024-03-02T05:40:11;98373.78;;;9.73;85.35
78317;BME280;67572;50.930;18.276;2024-03-02T05:43:16;98382.00;;;9.70;85.66
78317;BME280;67572;50.930;18.276;2024-03-02T05:46:20;98382.72;;;9.72;85.64
78317;BME280;67572;50.930;18.276;2024-03-02T05:49:24;98374.63;;;9.96;85.09
78317;BME280;67572;50.930;18.276;2024-03-02T05:52:27;98383.44;;;9.97;84.65
78317;BME280;67572;50.930;18.276;2024-03-02T05:55:30;98389.00;;;9.83;84.95
78317;BME280;67572;50.930;18.276;2024-03-02T05:58:35;98392.25;;;9.75;85.71
78317;BME280;67572;50.930;18.276;2024-03-02T06:01:51;98396.94;;;9.71;85.98
78317;BME280;67572;50.930;18.276;2024-03-02T06:04:55;98407.44;;;9.62;86.89
78317;BME280;67572;50.930;18.276;2024-03-02T06:07:59;98404.06;;;9.82;85.93
78317;BME280;67572;50.930;18.276;2024-03-02T06:11:02;98399.75;;;10.04;84.85
78317;BME280;67572;50.930;18.276;2024-03-02T06:14:08;98404.38;;;10.13;84.60
78317;BME280;67572;50.930;18.276;2024-03-02T06:17:12;98404.97;;;10.16;83.95
78317;BME280;67572;50.930;18.276;2024-03-02T06:20:15;98406.44;;;10.54;82.35
78317;BME280;67572;50.930;18.276;2024-03-02T06:23:19;98404.63;;;10.54;81.82
78317;BME280;67572;50.930;18.276;2024-03-02T06:26:22;98409.22;;;10.52;82.80
78317;BME280;67572;50.930;18.276;2024-03-02T06:29:28;98400.38;;;10.18;82.74
78317;BME280;67572;50.930;18.276;2024-03-02T06:32:31;98404.38;;;10.35;82.86
78317;BME280;67572;50.930;18.276;2024-03-02T06:35:35;98404.97;;;10.16;83.01
78317;BME280;67572;50.930;18.276;2024-03-02T06:38:38;98397.16;;;10.37;83.39
78317;BME280;67572;50.930;18.276;2024-03-02T06:41:44;98399.41;;;10.19;83.98
78317;BME280;67572;50.930;18.276;2024-03-02T06:44:50;98401.59;;;10.14;84.30
78317;BME280;67572;50.930;18.276;2024-03-02T06:47:53;98410.19;;;10.29;83.84
78317;BME280;67572;50.930;18.276;2024-03-02T06:50:57;98408.75;;;10.36;83.97
78317;BME280;67572;50.930;18.276;2024-03-02T06:54:00;98411.78;;;10.43;84.11
78317;BME280;67572;50.930;18.276;2024-03-02T06:57:04;98411.53;;;10.23;83.18
78317;BME280;67572;50.930;18.276;2024-03-02T07:00:09;98413.78;;;10.17;83.53
78317;BME280;67572;50.930;18.276;2024-03-02T07:03:13;98411.78;;;10.43;83.43
78317;BME280;67572;50.930;18.276;2024-03-02T07:06:16;98414.41;;;10.54;82.38
78317;BME280;67572;50.930;18.276;2024-03-02T07:09:20;98416.59;;;10.38;83.15
78317;BME280;67572;50.930;18.276;2024-03-02T07:12:25;98408.50;;;10.50;82.96
78317;BME280;67572;50.930;18.276;2024-03-02T07:15:30;98413.22;;;10.58;83.13
78317;BME280;67572;50.930;18.276;2024-03-02T07:18:49;98431.06;;;10.56;82.77
78317;BME280;67572;50.930;18.276;2024-03-02T07:21:54;98425.53;;;10.48;82.93
78317;BME280;67572;50.930;18.276;2024-03-02T07:24:58;98424.13;;;10.87;82.28
78317;BME280;67572;50.930;18.276;2024-03-02T07:28:01;98421.81;;;10.94;80.70
78317;BME280;67572;50.930;18.276;2024-03-02T07:31:07;98427.50;;;11.32;79.69
78317;BME280;67572;50.930;18.276;2024-03-02T07:34:11;98430.81;;;11.46;79.79
78317;BME280;67572;50.930;18.276;2024-03-02T07:37:15;98429.16;;;11.45;79.31
78317;BME280;67572;50.930;18.276;2024-03-02T07:40:18;98433.19;;;10.96;80.96
78317;BME280;67572;50.930;18.276;2024-03-02T07:43:22;98436.34;;;10.90;82.92
78317;BME280;67572;50.930;18.276;2024-03-02T07:46:29;98441.72;;;11.10;82.30
78317;BME280;67572;50.930;18.276;2024-03-02T07:49:33;98450.16;;;11.27;81.76
78317;BME280;67572;50.930;18.276;2024-03-02T07:52:36;98447.41;;;11.49;81.23
78317;BME280;67572;50.930;18.276;2024-03-02T07:55:40;98438.97;;;11.33;80.79
78317;BME280;67572;50.930;18.276;2024-03-02T07:58:43;98452.25;;;11.44;81.27
78317;BME280;67572;50.930;18.276;2024-03-02T08:01:50;98442.81;;;11.72;81.26
78317;BME280;67572;50.930;18.276;2024-03-02T08:04:57;98445.06;;;11.56;80.09
78317;BME280;67572;50.930;18.276;2024-03-02T08:08:00;98437.44;;;12.04;78.69
78317;BME280;67572;50.930;18.276;2024-03-02T08:11:04;98445.63;;;11.91;78.22
78317;BME280;67572;50.930;18.276;2024-03-02T08:14:07;98454.53;;;11.81;79.16
78317;BME280;67572;50.930;18.276;2024-03-02T08:17:15;98450.94;;;12.12;77.28
78317;BME280;67572;50.930;18.276;2024-03-02T08:20:19;98443.88;;;12.02;76.95
78317;BME280;67572;50.930;18.276;2024-03-02T08:23:22;98447.81;;;12.59;75.56
78317;BME280;67572;50.930;18.276;2024-03-02T08:26:26;98446.63;;;12.92;73.00
78317;BME280;67572;50.930;18.276;2024-03-02T08:29:31;98446.97;;;13.08;72.57
78317;BME280;67572;50.930;18.276;2024-03-02T08:32:35;98450.22;;;13.21;71.33
78317;BME280;67572;50.930;18.276;2024-03-02T08:35:39;98452.38;;;12.77;73.31
78317;BME280;67572;50.930;18.276;2024-03-02T08:38:42;98439.75;;;12.89;73.52
78317;BME280;67572;50.930;18.276;2024-03-02T08:41:47;98440.72;;;13.38;71.69
78317;BME280;67572;50.930;18.276;2024-03-02T08:44:52;98444.50;;;13.65;69.62
78317;BME280;67572;50.930;18.276;2024-03-02T08:47:57;98443.03;;;13.12;71.07
78317;BME280;67572;50.930;18.276;2024-03-02T08:51:03;98440.72;;;13.48;70.91
78317;BME280;67572;50.930;18.276;2024-03-02T08:54:09;98446.72;;;13.98;69.14
78317;BME280;67572;50.930;18.276;2024-03-02T08:57:13;98448.19;;;14.30;68.31
78317;BME280;67572;50.930;18.276;2024-03-02T09:00:19;98443.47;;;13.95;69.71
78317;BME280;67572;50.930;18.276;2024-03-02T09:03:24;98444.59;;;14.02;70.10
78317;BME280;67572;50.930;18.276;2024-03-02T09:06:28;98446.78;;;14.26;70.14
78317;BME280;67572;50.930;18.276;2024-03-02T09:09:31;98443.22;;;13.88;70.74
78317;BME280;67572;50.930;18.276;2024-03-02T09:12:36;98444.72;;;14.10;70.82
78317;BME280;67572;50.930;18.276;2024-03-02T09:15:44;98446.84;;;13.97;70.62
78317;BME280;67572;50.930;18.276;2024-03-02T09:18:49;98444.28;;;14.05;70.27
78317;BME280;67572;50.930;18.276;2024-03-02T09:21:52;98445.63;;;14.38;70.30
78317;BME280;67572;50.930;18.276;2024-03-02T09:24:57;98444.72;;;14.66;68.71
78317;BME280;67572;50.930;18.276;2024-03-02T09:28:01;98450.41;;;14.54;68.59
78317;BME280;67572;50.930;18.276;2024-03-02T09:31:05;98447.50;;;14.65;68.82
78317;BME280;67572;50.930;18.276;2024-03-02T09:34:10;98447.31;;;15.04;67.94
78317;BME280;67572;50.930;18.276;2024-03-02T09:37:14;98451.44;;;14.98;67.70
78317;BME280;67572;50.930;18.276;2024-03-02T09:40:17;98451.19;;;15.19;66.35
78317;BME280;67572;50.930;18.276;2024-03-02T09:43:21;98444.97;;;15.18;66.22
78317;BME280;67572;50.930;18.276;2024-03-02T09:46:25;98446.03;;;14.80;64.22
78317;BME280;67572;50.930;18.276;2024-03-02T09:49:30;98445.25;;;14.97;64.85
78317;BME280;67572;50.930;18.276;2024-03-02T09:52:39;98458.06;;;15.21;64.57
78317;BME280;67572;50.930;18.276;2024-03-02T09:55:46;98456.72;;;15.35;64.57
78317;BME280;67572;50.930;18.276;2024-03-02T09:58:49;98454.78;;;15.27;65.77
78317;BME280;67572;50.930;18.276;2024-03-02T10:01:57;98459.47;;;14.98;65.96
78317;BME280;67572;50.930;18.276;2024-03-02T10:05:03;98452.03;;;14.92;65.84
78317;BME280;67572;50.930;18.276;2024-03-02T10:08:07;98458.19;;;15.02;64.94
78317;BME280;67572;50.930;18.276;2024-03-02T10:11:10;98456.22;;;15.22;66.68
78317;BME280;67572;50.930;18.276;2024-03-02T10:14:14;98446.00;;;15.35;65.16
78317;BME280;67572;50.930;18.276;2024-03-02T10:17:18;98450.72;;;15.23;65.34
78317;BME280;67572;50.930;18.276;2024-03-02T10:20:23;98448.28;;;15.12;65.29
78317;BME280;67572;50.930;18.276;2024-03-02T10:23:27;98442.63;;;15.51;64.42
78317;BME280;67572;50.930;18.276;2024-03-02T10:26:30;98448.22;;;15.58;65.25
78317;BME280;67572;50.930;18.276;2024-03-02T10:29:36;98443.47;;;15.51;65.65
78317;BME280;67572;50.930;18.276;2024-03-02T10:32:40;98444.38;;;15.24;65.06
78317;BME280;67572;50.930;18.276;2024-03-02T10:35:45;98450.50;;;15.52;65.27
78317;BME280;67572;50.930;18.276;2024-03-02T10:38:49;98447.91;;;15.78;65.35
78317;BME280;67572;50.930;18.276;2024-03-02T10:41:58;98443.63;;;15.50;65.08
78317;BME280;67572;50.930;18.276;2024-03-02T10:45:02;98450.66;;;15.51;65.72
78317;BME280;67572;50.930;18.276;2024-03-02T10:48:07;98449.78;;;15.15;65.24
78317;BME280;67572;50.930;18.276;2024-03-02T10:51:12;98450.44;;;15.26;64.89
78317;BME280;67572;50.930;18.276;2024-03-02T10:54:16;98446.03;;;15.25;65.04
78317;BME280;67572;50.930;18.276;2024-03-02T10:57:31;98441.97;;;15.67;64.69
78317;BME280;67572;50.930;18.276;2024-03-02T11:00:38;98446.53;;;15.39;65.24
78317;BME280;67572;50.930;18.276;2024-03-02T11:03:42;98432.22;;;15.84;64.78
78317;BME280;67572;50.930;18.276;2024-03-02T11:06:50;98434.72;;;15.85;64.53
78317;BME280;67572;50.930;18.276;2024-03-02T11:09:58;98429.44;;;15.93;63.87
78317;BME280;67572;50.930;18.276;2024-03-02T11:13:05;98426.88;;;16.09;63.52
78317;BME280;67572;50.930;18.276;2024-03-02T11:16:14;98428.19;;;16.05;62.39
78317;BME280;67572;50.930;18.276;2024-03-02T11:19:21;98420.97;;;16.32;61.63
78317;BME280;67572;50.930;18.276;2024-03-02T11:22:29;98435.34;;;15.97;62.56
78317;BME280;67572;50.930;18.276;2024-03-02T11:25:32;98431.69;;;16.32;63.02
78317;BME280;67572;50.930;18.276;2024-03-02T11:28:36;98435.25;;;16.32;62.98
78317;BME280;67572;50.930;18.276;2024-03-02T11:31:57;98427.59;;;16.46;62.04
78317;BME280;67572;50.930;18.276;2024-03-02T11:35:02;98422.09;;;16.21;62.02
78317;BME280;67572;50.930;18.276;2024-03-02T11:38:09;98424.47;;;16.58;61.55
78317;BME280;67572;50.930;18.276;2024-03-02T11:41:13;98426.63;;;16.21;61.96
78317;BME280;67572;50.930;18.276;2024-03-02T11:44:16;98420.84;;;16.33;61.65
78317;BME280;67572;50.930;18.276;2024-03-02T11:47:21;98421.88;;;16.41;60.33
78317;BME280;67572;50.930;18.276;2024-03-02T11:50:34;98426.94;;;16.18;60.63
78317;BME280;67572;50.930;18.276;2024-03-02T11:53:41;98418.34;;;16.40;59.77
78317;BME280;67572;50.930;18.276;2024-03-02T11:56:45;98418.78;;;16.61;58.86
78317;BME280;67572;50.930;18.276;2024-03-02T11:59:51;98417.31;;;16.33;56.90
78317;BME280;67572;50.930;18.276;2024-03-02T12:03:00;98421.91;;;16.49;58.52
78317;BME280;67572;50.930;18.276;2024-03-02T12:06:04;98423.66;;;16.06;62.36
78317;BME280;67572;50.930;18.276;2024-03-02T12:09:10;98420.31;;;16.04;62.37
78317;BME280;67572;50.930;18.276;2024-03-02T12:12:14;98421.50;;;15.84;63.35
78317;BME280;67572;50.930;18.276;2024-03-02T12:15:23;98426.75;;;15.93;64.29
78317;BME280;67572;50.930;18.276;2024-03-02T12:18:29;98426.00;;;16.27;63.86
78317;BME280;67572;50.930;18.276;2024-03-02T12:21:33;98423.50;;;15.64;64.88
78317;BME280;67572;50.930;18.276;2024-03-02T12:24:42;98421.09;;;15.61;65.71
78317;BME280;67572;50.930;18.276;2024-03-02T12:27:49;98422.81;;;15.79;66.39
78317;BME280;67572;50.930;18.276;2024-03-02T12:30:53;98428.69;;;15.47;66.56
78317;BME280;67572;50.930;18.276;2024-03-02T12:33:57;98421.28;;;15.59;67.03
78317;BME280;67572;50.930;18.276;2024-03-02T12:37:00;98415.44;;;15.46;67.30
78317;BME280;67572;50.930;18.276;2024-03-02T12:40:09;98416.84;;;15.68;67.32
78317;BME280;67572;50.930;18.276;2024-03-02T12:43:13;98420.44;;;15.59;67.42
78317;BME280;67572;50.930;18.276;2024-03-02T12:46:17;98423.56;;;15.36;67.20
78317;BME280;67572;50.930;18.276;2024-03-02T12:49:22;98424.00;;;15.14;67.73
78317;BME280;67572;50.930;18.276;2024-03-02T12:52:25;98423.53;;;15.01;67.61
78317;BME280;67572;50.930;18.276;2024-03-02T12:55:31;98422.69;;;15.18;68.00
78317;BME280;67572;50.930;18.276;2024-03-02T12:58:39;98413.91;;;14.80;68.69
78317;BME280;67572;50.930;18.276;2024-03-02T13:01:52;98414.47;;;14.84;68.83
78317;BME280;67572;50.930;18.276;2024-03-02T13:04:56;98415.63;;;15.26;67.65
78317;BME280;67572;50.930;18.276;2024-03-02T13:08:00;98415.25;;;14.94;67.01
78317;BME280;67572;50.930;18.276;2024-03-02T13:11:09;98405.09;;;14.97;67.03
78317;BME280;67572;50.930;18.276;2024-03-02T13:14:13;98410.31;;;14.99;67.95
78317;BME280;67572;50.930;18.276;2024-03-02T13:17:17;98406.63;;;15.00;67.75
78317;BME280;67572;50.930;18.276;2024-03-02T13:20:21;98411.06;;;14.91;67.92
78317;BME280;67572;50.930;18.276;2024-03-02T13:23:26;98407.28;;;14.84;68.41
78317;BME280;67572;50.930;18.276;2024-03-02T13:26:34;98405.66;;;14.74;68.84
78317;BME280;67572;50.930;18.276;2024-03-02T13:29:37;98412.38;;;15.05;67.92
78317;BME280;67572;50.930;18.276;2024-03-02T13:32:41;98409.31;;;15.18;68.31
78317;BME280;67572;50.930;18.276;2024-03-02T13:35:44;98408.03;;;15.22;68.06
78317;BME280;67572;50.930;18.276;2024-03-02T13:38:50;98424.03;;;15.49;67.62
78317;BME280;67572;50.930;18.276;2024-03-02T13:41:55;98411.84;;;15.37;66.41
78317;BME280;67572;50.930;18.276;2024-03-02T13:45:06;98418.19;;;15.18;67.47
78317;BME280;67572;50.930;18.276;2024-03-02T13:48:09;98410.38;;;15.07;67.52
78317;BME280;67572;50.930;18.276;2024-03-02T13:51:13;98412.16;;;15.16;66.74
78317;BME280;67572;50.930;18.276;2024-03-02T13:54:17;98417.44;;;15.44;66.60
78317;BME280;67572;50.930;18.276;2024-03-02T13:57:25;98415.75;;;15.25;66.21
78317;BME280;67572;50.930;18.276;2024-03-02T14:00:31;98414.50;;;15.65;65.75
78317;BME280;67572;50.930;18.276;2024-03-02T14:03:34;98405.59;;;15.64;65.81
78317;BME280;67572;50.930;18.276;2024-03-02T14:06:38;98402.28;;;15.52;65.64
78317;BME280;67572;50.930;18.276;2024-03-02T14:09:42;98409.19;;;15.73;65.63
78317;BME280;67572;50.930;18.276;2024-03-02T14:12:46;98407.56;;;15.44;66.20
78317;BME280;67572;50.930;18.276;2024-03-02T14:15:51;98408.41;;;15.63;65.82
78317;BME280;67572;50.930;18.276;2024-03-02T14:18:54;98406.97;;;15.68;66.01
78317;BME280;67572;50.930;18.276;2024-03-02T14:21:58;98408.16;;;15.92;65.34
78317;BME280;67572;50.930;18.276;2024-03-02T14:25:02;98404.91;;;16.06;63.11
78317;BME280;67572;50.930;18.276;2024-03-02T14:28:07;98411.31;;;16.13;63.33
78317;BME280;67572;50.930;18.276;2024-03-02T14:31:31;98411.66;;;15.92;62.24
78317;BME280;67572;50.930;18.276;2024-03-02T14:34:34;98417.53;;;15.70;61.90
78317;BME280;67572;50.930;18.276;2024-03-02T14:37:41;98407.66;;;15.70;61.12
78317;BME280;67572;50.930;18.276;2024-03-02T14:40:44;98414.53;;;15.19;62.36
78317;BME280;67572;50.930;18.276;2024-03-02T14:43:49;98419.88;;;15.55;63.28
78317;BME280;67572;50.930;18.276;2024-03-02T14:46:52;98410.94;;;15.29;61.93
78317;BME280;67572;50.930;18.276;2024-03-02T14:49:56;98420.28;;;15.42;63.15
78317;BME280;67572;50.930;18.276;2024-03-02T14:53:00;98411.16;;;15.53;62.99
78317;BME280;67572;50.930;18.276;2024-03-02T14:56:05;98407.41;;;15.64;62.31
78317;BME280;67572;50.930;18.276;2024-03-02T14:59:10;98414.81;;;15.16;62.48
78317;BME280;67572;50.930;18.276;2024-03-02T15:02:13;98400.53;;;15.43;61.94
78317;BME280;67572;50.930;18.276;2024-03-02T15:05:17;98401.44;;;15.52;62.25
78317;BME280;67572;50.930;18.276;2024-03-02T15:08:20;98398.59;;;15.00;63.32
78317;BME280;67572;50.930;18.276;2024-03-02T15:11:24;98404.72;;;15.10;63.17
78317;BME280;67572;50.930;18.276;2024-03-02T15:14:30;98402.28;;;15.17;62.85
78317;BME280;67572;50.930;18.276;2024-03-02T15:17:33;98404.13;;;15.16;63.31
78317;BME280;67572;50.930;18.276;2024-03-02T15:20:37;98405.72;;;15.09;63.45
78317;BME280;67572;50.930;18.276;2024-03-02T15:23:40;98402.06;;;15.46;62.94
78317;BME280;67572;50.930;18.276;2024-03-02T15:26:44;98404.97;;;15.35;62.95
78317;BME280;67572;50.930;18.276;2024-03-02T15:29:49;98411.91;;;15.10;63.08
78317;BME280;67572;50.930;18.276;2024-03-02T15:32:54;98410.75;;;14.94;63.53
78317;BME280;67572;50.930;18.276;2024-03-02T15:35:58;98404.50;;;15.21;62.47
78317;BME280;67572;50.930;18.276;2024-03-02T15:39:01;98408.03;;;15.04;62.92
78317;BME280;67572;50.930;18.276;2024-03-02T15:42:10;98404.59;;;14.66;63.46
78317;BME280;67572;50.930;18.276;2024-03-02T15:45:16;98399.66;;;14.89;63.30
78317;BME280;67572;50.930;18.276;2024-03-02T15:48:20;98398.59;;;15.00;62.66
78317;BME280;67572;50.930;18.276;2024-03-02T15:51:23;98407.88;;;15.06;62.87
78317;BME280;67572;50.930;18.276;2024-03-02T15:54:26;98398.56;;;14.82;63.50
78317;BME280;67572;50.930;18.276;2024-03-02T15:57:32;98401.59;;;15.15;62.53
78317;BME280;67572;50.930;18.276;2024-03-02T16:00:37;98397.31;;;15.04;63.24
78317;BME280;67572;50.930;18.276;2024-03-02T16:03:41;98398.13;;;14.59;63.49
78317;BME280;67572;50.930;18.276;2024-03-02T16:06:45;98399.81;;;14.60;64.46
78317;BME280;67572;50.930;18.276;2024-03-02T16:09:49;98399.41;;;14.55;64.53